WetterOnline ( https://www.wetteronline.de )

Wetter aktuell Potsdam

Aktuelles Wetter: Berlin-Tempelhof (49m)

6-stündlich | Neueste Meldungen
Ortszeit Temperatur Wetter
So, 21.04. 2:00 1.6° C bewölkt
Sa, 20.04. 20:00 6.5° C bedeckt
Sa, 20.04. 14:00 7.1° C bewölkt
Sa, 20.04. 8:00 4.4° C bedeckt
Sa, 20.04. 2:00 6.0° C leichter Regen
Fr, 19.04. 20:00 8.1° C bewölkt
Fr, 19.04. 14:00 5.7° C Regen
Fr, 19.04. 8:00 6.1° C leichter Regen
Ortszeit Temperatur Wetter
So, 21.04. 6:30 0.5° C fast wolkenlos
So, 21.04. 6:20 0.5° C fast wolkenlos
So, 21.04. 6:10 0.0° C fast wolkenlos
So, 21.04. 6:00 -0.6° C fast wolkenlos
So, 21.04. 5:50 -0.6° C fast wolkenlos
So, 21.04. 5:40 -0.5° C fast wolkenlos
So, 21.04. 5:30 -0.2° C fast wolkenlos
So, 21.04. 5:00 0.0° C leicht bewölkt
So, 21.04. 4:30 -1.2° C bewölkt
So, 21.04. 4:00 -0.5° C bedeckt
So, 21.04. 3:30 0.0° C wolkig
Ortszeit Relative Feuchte Sichtweite
So, 21.04. 2:00 80% 40 km
Sa, 20.04. 20:00 57% >70 km
Sa, 20.04. 14:00 67% >70 km
Sa, 20.04. 8:00 83% >70 km
Sa, 20.04. 2:00 93% 30 km
Fr, 19.04. 20:00 87% 65 km
Fr, 19.04. 14:00 89% 8 km
Fr, 19.04. 8:00 85% 30 km
Ortszeit Relative Feuchte Sichtweite
So, 21.04. 6:30 74% 50 km
So, 21.04. 6:20 74% -
So, 21.04. 6:10 77% -
So, 21.04. 6:00 80% 45 km
So, 21.04. 5:50 80% -
So, 21.04. 5:40 81% -
So, 21.04. 5:30 80% 50 km
So, 21.04. 5:00 80% 45 km
So, 21.04. 4:30 86% 35 km
So, 21.04. 4:00 83% 40 km
So, 21.04. 3:30 83% 40 km
Ortszeit Niederschlagsmenge Niederschlagsart
So, 21.04. 2:00 0.0 l/m2 in 6 Std. -
Sa, 20.04. 20:00 0.1 l/m2 in 12 Std. Regen
Sa, 20.04. 14:00 0.1 l/m2 in 6 Std. Regen
Sa, 20.04. 8:00 4 l/m2 in 12 Std. Regen
Sa, 20.04. 2:00 2 l/m2 in 6 Std. Regen
Fr, 19.04. 20:00 5 l/m2 in 12 Std. Regen
Fr, 19.04. 14:00 4 l/m2 in 6 Std. Regen
Fr, 19.04. 8:00 0.2 l/m2 in 12 Std. Regen
Ortszeit Niederschlagsmenge Niederschlagsart
So, 21.04. 6:30 0.0 l/m2 in 30 Min -
So, 21.04. 6:20 keine Meldung -
So, 21.04. 6:10 keine Meldung -
So, 21.04. 6:00 0.0 l/m2 in 1 Std. -
So, 21.04. 5:50 keine Meldung -
So, 21.04. 5:40 keine Meldung -
So, 21.04. 5:30 0.0 l/m2 in 30 Min -
So, 21.04. 5:00 0.0 l/m2 in 1 Std. -
So, 21.04. 4:30 0.0 l/m2 in 30 Min -
So, 21.04. 4:00 0.0 l/m2 in 1 Std. -
So, 21.04. 3:30 0.0 l/m2 in 30 Min -
Ortszeit Stärke Spitze Richtung
km/h Bft. km/h Grad Sektor
So, 21.04. 2:00 9 2 22 80° O
Sa, 20.04. 20:00 17 3 35 40° NO
Sa, 20.04. 14:00 11 2 44 20° N
Sa, 20.04. 8:00 29 5 54 360° N
Sa, 20.04. 2:00 11 2 29 290° W
Fr, 19.04. 20:00 9 2 28 220° SW
Fr, 19.04. 14:00 11 2 40 230° SW
Fr, 19.04. 8:00 11 2 18 190° S
Ortszeit Stärke Spitze Richtung
km/h Bft. km/h Grad Sektor
So, 21.04. 6:30 14 3 22 80° O
So, 21.04. 6:20 14 3 - 80° O
So, 21.04. 6:10 11 2 - 90° O
So, 21.04. 6:00 11 2 18 80° O
So, 21.04. 5:50 11 2 - 80° O
So, 21.04. 5:40 9 2 - 80° O
So, 21.04. 5:30 13 3 19 80° O
So, 21.04. 5:00 13 3 19 80° O
So, 21.04. 4:30 11 2 14 80° O
So, 21.04. 4:00 9 2 15 80° O
So, 21.04. 3:30 7 2 14 90° O
Ortszeit Untergrenze Bedeckung Gattung
total tief tief mittel hoch
So, 21.04. 2:00 1500 m 8/8 6/8 - - -
Sa, 20.04. 20:00 1500 m 8/8 8/8 - - -
Sa, 20.04. 14:00 1800 m 7/8 7/8 - - -
Sa, 20.04. 8:00 450 m 8/8 8/8 - - -
Sa, 20.04. 2:00 270 m 8/8 8/8 - - -
Fr, 19.04. 20:00 1140 m 8/8 6/8 - - -
Fr, 19.04. 14:00 300 m 8/8 8/8 - - -
Fr, 19.04. 8:00 900 m 8/8 8/8 - - -
Ortszeit Bedeckungsgrad in Achtel und Wolkenuntergrenze
So, 21.04. 6:30 1(4800m)
So, 21.04. 6:20 1(4800m)
So, 21.04. 6:10 1
So, 21.04. 6:00 1(4800m)
So, 21.04. 5:50 1(4800m)
So, 21.04. 5:40 1
So, 21.04. 5:30 1(4800m)
So, 21.04. 5:00 2(4500m)
So, 21.04. 4:30 7(4800m)
So, 21.04. 4:00 8(5100m)
So, 21.04. 3:30 6(4800m) 6(5400m)
Ortszeit Luftdruck NN (hPa) Tendenz (hPa in 3 Std.)
So, 21.04. 2:00 1021 + 0,6
Sa, 20.04. 20:00 1018 + 0,9
Sa, 20.04. 14:00 1017 + 2,0
Sa, 20.04. 8:00 1011 + 4,5
Sa, 20.04. 2:00 1003 + 1,5
Fr, 19.04. 20:00 1001 - 0,4
Fr, 19.04. 14:00 1003 - 2,3
Fr, 19.04. 8:00 1008 - 2,7
Ortszeit Luftdruck NN (hPa) Tendenz (hPa in 3 Std.)
So, 21.04. 6:30 1022 + 0,8
So, 21.04. 6:20 1022 keine Meldung
So, 21.04. 6:10 1022 keine Meldung
So, 21.04. 6:00 1021 + 0,5
So, 21.04. 5:50 1021 keine Meldung
So, 21.04. 5:40 1021 keine Meldung
So, 21.04. 5:30 1021 + 0,5
So, 21.04. 5:00 1021 + 0,5
So, 21.04. 4:30 1021 + 0,5
So, 21.04. 4:00 1021 + 0,5
So, 21.04. 3:30 1021 + 0,5
Ortszeit Schneehöhe (cm)
So, 21.04. 2:00 0
Sa, 20.04. 20:00 0
Sa, 20.04. 14:00 0
Sa, 20.04. 8:00 0
Sa, 20.04. 2:00 0
Fr, 19.04. 20:00 0
Fr, 19.04. 14:00 0
Fr, 19.04. 8:00 0
Ortszeit Schneehöhe (cm)
So, 21.04. 6:30 0
So, 21.04. 6:20 0
So, 21.04. 6:10 -
So, 21.04. 6:00 0
So, 21.04. 5:50 0
So, 21.04. 5:40 -
So, 21.04. 5:30 0
So, 21.04. 5:00 0
So, 21.04. 4:30 0
So, 21.04. 4:00 0
So, 21.04. 3:30 0
Link zu dieser Seite / Seite empfehlen

Das Wetter in ...